Nearby METAR Reports

 

KSEE - San Diego/Santee, California, USA
Distance from station: E 4mi, 6km
Updated: 02/16/2019 5:55am
Mostly cloudy
Mostly cloudy
 Wind from calm
Wind: Calm
Temperature: 46°F , 8°C
Dew Point: 45°F , 7°C
Humidity: 93%
Barometer: 30.14 inHg , 1020.7 hPa
Clouds: Mostly cloudy
Visibility: 10 miles , 16 km
Cloud details: Partly cloudy 3300 ft
Mostly cloudy 4400 ft
2019/02/16 13:55 KSEE 161355Z AUTO 00000KT 10SM SCT033 BKN044 08/07 A3014 RMK AO2
KMYF - San Diego/Mntgmy, California, USA
Distance from station: W 6mi, 10km
Updated: 02/16/2019 5:53am
Partly cloudy
Partly cloudy
 Wind from WNW
Wind: WNW 7 mph , 11 km/h
Temperature: 50°F , 10°C
Wind Chill: 47°F , 8°C
Dew Point: 39°F , 4°C
Humidity: 67%
Barometer: 30.15 inHg , 1021 hPa
Clouds: Partly cloudy
Visibility: 10 miles , 16 km
Cloud details: Partly cloudy 3700 ft
2019/02/16 13:53 KMYF 161353Z 30006KT 10SM SCT037 10/04 A3015 RMK AO2 SLP207 T01000044
 
KNKX - Miramar Nas/San, California, USA
Distance from station: WNW 7mi, 11km
Updated: 02/16/2019 5:55am
Partly cloudy
Partly cloudy
 
Temperature: 52°F , 11°C
Dew Point: 41°F , 5°C
Humidity: 67%
Barometer: 30.14 inHg , 1020.7 hPa
Clouds: Partly cloudy
Visibility: 10 miles , 16 km
Cloud details: Partly cloudy 3300 ft
2019/02/16 13:55 KNKX 161355Z AUTO 10SM SCT033 11/05 A3014 RMK AO2 SLP202 T01110050 $
KSAN - San Diego, California, USA
Distance from station: WSW 11mi, 17km
Updated: 02/16/2019 5:51am
Mostly cloudy
Mostly cloudy
 Wind from NW
Wind: NW 7 mph , 11 km/h
Temperature: 54°F , 12°C
Dew Point: 41°F , 5°C
Humidity: 63%
Barometer: 30.17 inHg , 1021.7 hPa
Clouds: Mostly cloudy
Visibility: 10 miles , 16 km
Cloud details: Mostly cloudy 3000 ft
Mostly cloudy 4500 ft
Mostly cloudy 25000 ft
2019/02/16 13:51 KSAN 161351Z 31006KT 10SM BKN030 BKN045 BKN250 12/05 A3017 RMK AO2 SLP215 T01220050 $
 
KNZY - North Island Nas, California, USA
Distance from station: SW 13mi, 22km
Updated: 02/16/2019 5:52am
Few Clouds
Few Clouds
 Wind from NW
Wind: NW 20 mph , 31 km/h
Temperature: 59°F , 15°C
Dew Point: 39°F , 4°C
Humidity: 48%
Barometer: 30.15 inHg , 1021 hPa
Clouds: Few Clouds
Visibility: 10 miles , 16 km
Cloud details: Few Clouds 4000 ft
2019/02/16 13:52 KNZY 161352Z AUTO 31017KT 10SM FEW040 15/04 A3015 RMK AO2 SLP208 T01500044 PNO $
KRNM - Ramona, California, USA
Distance from station: NNE 16mi, 26km
Updated: 02/16/2019 5:53am
Mostly cloudy
Mostly cloudy
 Wind from W
Wind: W 5 mph , 7 km/h
Temperature: 45°F , 7°C
Wind Chill: 42°F , 6°C
Dew Point: 41°F , 5°C
Humidity: 87%
Barometer: 30.12 inHg , 1020 hPa
Clouds: Mostly cloudy
Visibility: 10 miles , 16 km
Cloud details: Few Clouds 2400 ft
Partly cloudy 3000 ft
Mostly cloudy 4000 ft
2019/02/16 13:53 KRNM 161353Z AUTO 26004KT 10SM FEW024 SCT030 BKN040 07/05 A3012 RMK AO2 SLP197 T00670050
 
KSDM - San Diego/Brown, California, USA
Distance from station: S 16mi, 26km
Updated: 02/16/2019 5:53am
Partly cloudy
Partly cloudy
 Wind from NW
Wind: NW 5 mph , 7 km/h
Temperature: 50°F , 10°C
Wind Chill: 48°F , 9°C
Dew Point: 43°F , 6°C
Humidity: 76%
Barometer: 30.14 inHg , 1020.7 hPa
Clouds: Partly cloudy
Visibility: 10 miles , 16 km
Cloud details: Partly cloudy 3400 ft
2019/02/16 13:53 KSDM 161353Z AUTO 31004KT 10SM SCT034 10/06 A3014 RMK AO2 SLP207 T01000056
KNRS - Imperial Beach, California, USA
Distance from station: SSW 18mi, 29km
Updated: 02/16/2019 5:56am
Few Clouds
Few Clouds
 Wind from NW
Wind: NW 15 mph , 24 km/h
Temperature: 54°F , 12°C
Dew Point: 41°F , 5°C
Humidity: 63%
Barometer: 30.16 inHg , 1021.3 hPa
Clouds: Few Clouds
Visibility: 10 miles , 16 km
Cloud details: Few Clouds 3900 ft
2019/02/16 13:56 KNRS 161356Z AUTO 31013KT 10SM FEW039 12/05 A3016 RMK AO2 SLP212 T01220050 $
 
MMTJ - Tijuana Intl Arp, Mexico
Distance from station: S 20mi, 32km
Updated: 02/16/2019 5:43am
Partly cloudy
Partly cloudy
 Wind from WNW
Wind: WNW 7 mph , 11 km/h
Temperature: 50°F , 10°C
Wind Chill: 47°F , 8°C
Dew Point: 43°F , 6°C
Humidity: 76%
Barometer: 30.17 inHg , 1021.7 hPa
Clouds: Partly cloudy
Visibility: 7 miles , 11 km
Cloud details: Partly cloudy 1500 ft
2019/02/16 13:43 MMTJ 161343Z 30006KT 7SM SCT015 10/06 A3017 RMK 8/500
KCRQ - Carlsbad, California, USA
Distance from station: NW 26mi, 43km
Updated: 02/16/2019 5:53am
Mostly cloudy
Mostly cloudy
 Wind from varies
Wind: varies 5 mph , 7 km/h
Temperature: 54°F , 12°C
Dew Point: 43°F , 6°C
Humidity: 67%
Barometer: 30.12 inHg , 1020 hPa
Clouds: Mostly cloudy
Visibility: 10 miles , 16 km
Cloud details: Few Clouds 3500 ft
Mostly cloudy 5000 ft
2019/02/16 13:53 KCRQ 161353Z AUTO VRB04KT 10SM FEW035 BKN050 12/06 A3012 RMK AO2 SLP199 T01170056
 
KOKB - Oceanside, California, USA
Distance from station: NW 33mi, 54km
Updated: 02/16/2019 5:52am
Mostly cloudy
Mostly cloudy
 Wind from calm
Wind: Calm
Temperature: 48°F , 9°C
Dew Point: 46°F , 8°C
Humidity: 94%
Barometer: 30.12 inHg , 1020 hPa
Clouds: Mostly cloudy
Visibility: 10 miles , 16 km
Cloud details: Few Clouds 3600 ft
Mostly cloudy 5000 ft
2019/02/16 13:52 KOKB 161352Z AUTO 00000KT 10SM FEW036 BKN050 09/08 A3012 RMK AO2 SLP199 T00940078
KCZZ - Campo, California, USA
Distance from station: ESE 35mi, 56km
Updated: 02/16/2019 5:52am

 Wind from WSW
Wind: WSW 14 mph , 22 km/h
Temperature: 41°F , 5°C
Wind Chill: 33°F , 1°C
Dew Point: 37°F , 3°C
Humidity: 87%
Barometer: 30.04 inHg , 1017.3 hPa
2019/02/16 13:52 KCZZ 161352Z AUTO 25012KT 05/03 A3004 RMK AO1 PK WND 28026/1257 SLP164 T00500028
 
KNFG - Camp Pendleton, California, USA
Distance from station: NNW 37mi, 59km
Updated: 02/16/2019 5:55am
Few Clouds
Few Clouds
 Wind from calm
Wind: Calm
Temperature: 45°F , 7°C
Dew Point: 43°F , 6°C
Humidity: 93%
Barometer: 30.13 inHg , 1020.3 hPa
Clouds: Few Clouds
Visibility: 10 miles , 16 km
Cloud details: Few Clouds 3500 ft
2019/02/16 13:55 KNFG 161355Z AUTO 00000KT 10SM FEW035 07/06 A3013 RMK AO2 SLP203 T00670061
KRIV - Riverside/March, California, USA
Distance from station: N 74mi, 119km
Updated: 02/16/2019 5:58am
Clear
Clear
 Wind from calm
Wind: Calm
Temperature: 39°F , 4°C
Dew Point: 39°F , 4°C
Humidity: 100%
Barometer: 30.09 inHg , 1019 hPa
Clouds: Clear
Visibility: 10 miles , 16 km
2019/02/16 13:58 KRIV 161358Z AUTO 00000KT 10SM CLR 04/04 A3009 RMK AO2 SLP193 T00440044
 
KTRM - Thermal/Palm Spg, California, USA
Distance from station: NE 75mi, 121km
Updated: 02/16/2019 5:52am
Clear
Clear
 Wind from NNW
Wind: NNW 15 mph , 24 km/h
Temperature: 55°F , 13°C
Dew Point: 37°F , 3°C
Humidity: 51%
Barometer: 29.99 inHg , 1015.6 hPa
Clouds: Clear
Visibility: 10 miles , 16 km
2019/02/16 13:52 KTRM 161352Z AUTO 33013KT 10SM CLR 13/03 A2999 RMK AO2 SLP156 T01330028
KPSP - Palm Springs, California, USA
Distance from station: NNE 76mi, 122km
Updated: 02/16/2019 5:53am
Clear
Clear
 Wind from ESE
Wind: ESE 3 mph , 6 km/h
Temperature: 50°F , 10°C
Dew Point: 36°F , 2°C
Humidity: 58%
Barometer: 30.00 inHg , 1015.9 hPa
Clouds: Clear
Visibility: 10 miles , 16 km
2019/02/16 13:53 KPSP 161353Z 12003KT 10SM CLR 10/02 A3000 RMK AO2 SLP160 T01000022
 
KSNA - Costa Mesa, California, USA
Distance from station: NW 76mi, 123km
Updated: 02/16/2019 5:53am
Clear
Clear
 Wind from SSW
Wind: SSW 3 mph , 6 km/h
Temperature: 48°F , 9°C
Dew Point: 41°F , 5°C
Humidity: 76%
Barometer: 30.13 inHg , 1020.3 hPa
Clouds: Clear
Visibility: 10 miles , 16 km
2019/02/16 13:53 KSNA 161353Z 20003KT 10SM CLR 09/05 A3013 RMK AO2 SLP201 T00940050
KNJK - El Centro Naf, California, USA
Distance from station: E 79mi, 127km
Updated: 02/16/2019 5:56am
Partly cloudy
Partly cloudy
 Wind from NW
Wind: NW 6 mph , 9 km/h
Temperature: 52°F , 11°C
Dew Point: 36°F , 2°C
Humidity: 54%
Barometer: 30.03 inHg , 1016.9 hPa
Clouds: Partly cloudy
Visibility: 10 miles , 16 km
Cloud details: Partly cloudy 20000 ft
2019/02/16 13:56 KNJK 161356Z 31005KT 10SM SCT200 11/02 A3003 RMK AO2 SLP186 T01060017
 
KAJO - Corona Muni, California, USA
Distance from station: NNW 82mi, 132km
Updated: 02/16/2019 5:56am
Clear
Clear
 Wind from calm
Wind: Calm
Temperature: 41°F , 5°C
Dew Point: 39°F , 4°C
Humidity: 93%
Barometer: 30.12 inHg , 1020 hPa
Clouds: Clear
Visibility: 10 miles , 16 km
2019/02/16 13:56 KAJO 161356Z AUTO 00000KT 10SM CLR 05/04 A3012 RMK AO2 SLP214 P0001 T00500044